Time;durP1;ratioP1;P1;durP2;ratioP2;P2;SDS_P1;SDS_P2;PMS_P1;PMS_P2;Temp;Humidity;BMP_temperature;BMP_pressure;BME280_temperature;BME280_humidity;BME280_pressure;Samples;Min_cycle;Max_cycle;Signal;HPM_P1;HPM_P2
2022/09/08 00:00:08;;;;;;;4.17;2.57;;;;;;;18.93;100.00;97508.94;5073786;28;20699;-71
2022/09/08 00:02:36;;;;;;;6.67;2.67;;;;;;;18.94;100.00;97507.84;5074053;28;20204;-71
2022/09/08 00:05:04;;;;;;;5.10;2.70;;;;;;;18.99;100.00;97515.03;5074039;28;20736;-71
2022/09/08 00:07:32;;;;;;;5.17;2.67;;;;;;;18.99;100.00;97510.47;5074071;28;20204;-71
2022/09/08 00:10:01;;;;;;;3.13;2.47;;;;;;;18.94;100.00;97517.78;5074242;28;20319;-71
2022/09/08 00:12:28;;;;;;;2.73;2.30;;;;;;;18.98;100.00;97503.47;5074041;28;20204;-71
2022/09/08 00:14:55;;;;;;;4.27;2.50;;;;;;;18.88;100.00;97503.59;5073653;28;20709;-71
2022/09/08 00:17:22;;;;;;;4.37;2.57;;;;;;;18.88;100.00;97498.22;5073674;28;20310;-71
2022/09/08 00:19:49;;;;;;;4.57;2.77;;;;;;;18.80;100.00;97493.44;5073812;28;20244;-71
2022/09/08 00:22:15;;;;;;;4.03;2.70;;;;;;;18.88;100.00;97484.75;5073728;28;20571;-71
2022/09/08 00:24:41;;;;;;;3.40;2.87;;;;;;;18.82;100.00;97487.78;5073859;28;20228;-71
2022/09/08 00:27:08;;;;;;;3.70;2.73;;;;;;;18.86;100.00;97489.59;5073778;28;20207;-71
2022/09/08 00:29:35;;;;;;;2.83;2.40;;;;;;;18.90;100.00;97495.19;5074025;28;20220;-71
2022/09/08 00:32:02;;;;;;;3.30;2.67;;;;;;;18.89;100.00;97494.41;5073772;28;20211;-71
2022/09/08 00:34:29;;;;;;;3.57;2.73;;;;;;;18.88;100.00;97500.91;5072893;28;20204;-71
2022/09/08 00:36:58;;;;;;;3.30;3.00;;;;;;;18.88;100.00;97514.38;5073715;28;20211;-71
2022/09/08 00:39:24;;;;;;;3.53;2.83;;;;;;;18.84;100.00;97518.72;5073457;28;20240;-71
2022/09/08 00:41:51;;;;;;;3.27;2.90;;;;;;;18.91;100.00;97524.56;5073647;28;20200;-71
2022/09/08 00:44:48;;;;;;;3.73;3.07;;;;;;;18.92;100.00;97526.16;5073311;28;20729;-71
2022/09/08 00:47:20;;;;;;;3.27;2.70;;;;;;;18.97;100.00;97520.75;5073624;28;20275;-71
2022/09/08 00:49:51;;;;;;;3.90;3.03;;;;;;;19.02;100.00;97523.38;5073171;28;20221;-71
2022/09/08 00:52:18;;;;;;;4.10;2.80;;;;;;;19.05;100.00;97520.09;5073610;28;20185;-71
2022/09/08 00:54:46;;;;;;;3.20;2.60;;;;;;;19.06;100.00;97529.81;5073539;28;20204;-71
2022/09/08 00:57:12;;;;;;;6.40;2.90;;;;;;;18.98;100.00;97557.38;5073504;28;20210;-71
2022/09/08 00:59:39;;;;;;;5.50;2.30;;;;;;;18.91;100.00;97573.03;5073324;28;20307;-71
2022/09/08 01:02:24;;;;;;;3.30;2.97;;;;;;;18.88;100.00;97579.00;5073464;28;20205;-71
2022/09/08 01:04:58;;;;;;;4.53;2.83;;;;;;;18.94;100.00;97561.72;5073138;28;20199;-71
2022/09/08 01:13:29;;;;;;;3.07;2.77;;;;;;;18.65;100.00;97560.91;5073101;28;20180;-71
2022/09/08 01:15:56;;;;;;;3.53;2.77;;;;;;;18.64;100.00;97561.19;5073159;28;20215;-72
2022/09/08 01:18:23;;;;;;;3.30;3.00;;;;;;;18.63;100.00;97576.53;5073316;28;20204;-71
2022/09/08 01:21:10;;;;;;;3.73;3.13;;;;;;;18.56;100.00;97565.28;5072844;28;20229;-71
2022/09/08 01:24:11;;;;;;;4.27;2.90;;;;;;;18.54;100.00;97574.69;5073245;28;20267;-71
2022/09/08 01:27:18;;;;;;;3.40;3.07;;;;;;;18.49;100.00;97567.47;5072191;28;20188;-71
2022/09/08 01:29:46;;;;;;;5.37;3.57;;;;;;;18.48;100.00;97570.44;5069654;28;20227;-71
2022/09/08 01:32:14;;;;;;;3.40;3.10;;;;;;;18.43;100.00;97565.09;5073197;28;20204;-71
2022/09/08 01:34:42;;;;;;;5.00;3.50;;;;;;;18.47;100.00;97558.91;5071957;28;20212;-71
2022/09/08 01:37:08;;;;;;;4.30;3.00;;;;;;;18.45;100.00;97560.22;5072770;28;20219;-71
2022/09/08 01:39:35;;;;;;;3.97;3.43;;;;;;;18.42;100.00;97550.84;5072953;28;20232;-71
2022/09/08 01:42:01;;;;;;;5.00;3.50;;;;;;;18.41;100.00;97551.91;5072974;28;20664;-71
2022/09/08 01:44:29;;;;;;;3.83;3.43;;;;;;;18.42;100.00;97542.75;5073024;28;20258;-71
2022/09/08 01:46:56;;;;;;;3.90;3.53;;;;;;;18.45;100.00;97544.91;5076013;28;20204;-71
2022/09/08 01:49:23;;;;;;;3.70;3.33;;;;;;;18.44;100.00;97540.59;5076348;28;20228;-71
2022/09/08 01:51:49;;;;;;;4.13;3.40;;;;;;;18.41;100.00;97543.06;5076693;28;20200;-71
2022/09/08 01:54:15;;;;;;;3.83;3.33;;;;;;;18.38;100.00;97544.44;5076652;28;20200;-71
2022/09/08 01:56:42;;;;;;;5.17;3.73;;;;;;;18.36;100.00;97530.44;5076497;28;20215;-72
2022/09/08 01:59:08;;;;;;;4.60;3.60;;;;;;;18.33;100.00;97530.97;5076815;28;20215;-71
2022/09/08 02:01:34;;;;;;;5.17;3.87;;;;;;;18.31;100.00;97543.09;5076507;28;20208;-71
2022/09/08 02:04:01;;;;;;;5.30;3.87;;;;;;;18.26;100.00;97532.34;5076946;28;20208;-71
2022/09/08 02:06:28;;;;;;;5.43;3.57;;;;;;;18.31;100.00;97527.75;5076655;28;20208;-71
2022/09/08 02:08:56;;;;;;;4.53;3.43;;;;;;;18.31;100.00;97525.06;5076809;28;20209;-72
2022/09/08 02:11:23;;;;;;;4.73;4.00;;;;;;;18.29;100.00;97518.34;5076330;28;20228;-71
2022/09/08 02:13:49;;;;;;;4.23;3.83;;;;;;;18.33;100.00;97516.75;5075947;28;20254;-71
2022/09/08 02:16:16;;;;;;;4.40;4.00;;;;;;;18.28;100.00;97512.16;5075790;28;20680;-71
2022/09/08 02:18:43;;;;;;;3.83;3.23;;;;;;;18.31;100.00;97511.59;5075967;28;20655;-71
2022/09/08 02:21:15;;;;;;;4.27;3.53;;;;;;;18.33;100.00;97505.97;5075980;28;20245;-72
2022/09/08 02:23:44;;;;;;;5.30;3.70;;;;;;;18.23;100.00;97506.81;5076089;28;20543;-71
2022/09/08 02:26:19;;;;;;;5.53;3.77;;;;;;;18.22;100.00;97510.59;5075675;28;20204;-71
2022/09/08 02:28:46;;;;;;;3.53;2.93;;;;;;;18.25;100.00;97507.34;5076270;28;20208;-71
2022/09/08 02:31:12;;;;;;;3.53;2.57;;;;;;;18.30;100.00;97501.13;5075797;28;20227;-71
2022/09/08 02:33:40;;;;;;;2.30;2.00;;;;;;;18.28;100.00;97498.69;5076173;28;20208;-71
2022/09/08 02:36:08;;;;;;;2.77;2.30;;;;;;;18.33;100.00;97500.59;5075857;28;20204;-71
2022/09/08 02:38:34;;;;;;;2.43;1.60;;;;;;;18.22;100.00;97491.75;5075540;28;20574;-71
2022/09/08 02:41:00;;;;;;;4.17;2.00;;;;;;;18.24;100.00;97492.28;5075643;28;20233;-71
2022/09/08 02:43:28;;;;;;;3.20;1.90;;;;;;;18.33;100.00;97485.22;5075312;28;20235;-71
2022/09/08 02:45:55;;;;;;;2.37;1.70;;;;;;;18.29;100.00;97489.56;5075592;28;20228;-71
2022/09/08 02:48:21;;;;;;;2.13;1.93;;;;;;;18.24;100.00;97486.88;5075484;28;20299;-71
2022/09/08 02:50:48;;;;;;;1.80;1.70;;;;;;;18.17;100.00;97490.97;5075545;28;20220;-71
2022/09/08 02:53:14;;;;;;;1.57;1.40;;;;;;;18.09;100.00;97487.00;5075589;28;20217;-71
2022/09/08 02:55:42;;;;;;;2.93;1.60;;;;;;;18.16;100.00;97484.81;5075794;28;20215;-71
2022/09/08 02:58:11;;;;;;;2.80;1.50;;;;;;;18.14;100.00;97483.50;5074477;28;20301;-71
2022/09/08 03:00:39;;;;;;;2.20;1.50;;;;;;;18.11;100.00;97476.78;5074901;28;20648;-71
2022/09/08 03:03:06;;;;;;;2.73;1.50;;;;;;;18.08;100.00;97473.84;5075335;28;20205;-71
2022/09/08 03:05:33;;;;;;;1.73;1.20;;;;;;;18.11;100.00;97479.47;5075344;28;20573;-71
2022/09/08 03:08:00;;;;;;;2.30;1.60;;;;;;;17.98;100.00;97488.19;5074888;28;20341;-71
2022/09/08 03:10:27;;;;;;;2.40;1.40;;;;;;;18.03;100.00;97496.22;5075092;28;20224;-71
2022/09/08 03:12:55;;;;;;;2.50;1.13;;;;;;;18.07;100.00;97501.81;5075040;28;20200;-71
2022/09/08 03:15:24;;;;;;;2.03;1.47;;;;;;;18.05;100.00;97498.63;5074680;28;20204;-71
2022/09/08 03:17:51;;;;;;;3.37;1.50;;;;;;;18.07;100.00;97502.63;5074638;28;20213;-71
2022/09/08 03:20:18;;;;;;;3.27;1.50;;;;;;;18.17;100.00;97489.13;5074728;28;20232;-71
2022/09/08 03:22:44;;;;;;;2.10;1.30;;;;;;;18.04;100.00;97491.63;5074860;28;20226;-71
2022/09/08 03:25:11;;;;;;;1.97;1.07;;;;;;;17.98;100.00;97498.94;5074841;28;20200;-71
2022/09/08 03:27:38;;;;;;;1.67;1.27;;;;;;;17.98;100.00;97495.44;5074799;28;20209;-71
2022/09/08 03:30:07;;;;;;;2.20;1.30;;;;;;;18.00;100.00;97490.59;5074568;28;20227;-71
2022/09/08 03:32:35;;;;;;;2.17;1.30;;;;;;;17.98;100.00;97493.56;5074551;28;20204;-71
2022/09/08 03:35:01;;;;;;;1.30;1.20;;;;;;;17.90;100.00;97491.44;5074208;28;20687;-71
2022/09/08 03:37:28;;;;;;;1.07;1.03;;;;;;;18.02;100.00;97488.41;5074373;28;20205;-71
2022/09/08 03:39:55;;;;;;;1.83;1.40;;;;;;;17.78;100.00;97498.25;5074302;28;20225;-71
2022/09/08 03:42:22;;;;;;;1.03;1.00;;;;;;;17.89;100.00;97497.09;5074401;28;20210;-71
2022/09/08 03:44:49;;;;;;;1.43;1.10;;;;;;;17.89;100.00;97491.72;5074044;28;20208;-71
2022/09/08 03:47:15;;;;;;;1.53;1.30;;;;;;;17.94;100.00;97492.50;5074184;28;20208;-71
2022/09/08 03:49:42;;;;;;;1.03;1.03;;;;;;;17.96;100.00;97489.53;5074157;28;20224;-71
2022/09/08 03:52:08;;;;;;;2.20;1.00;;;;;;;17.92;100.00;97491.97;5073764;28;20204;-71
2022/09/08 03:54:50;;;;;;;1.50;1.30;;;;;;;17.86;100.00;97486.91;5074298;28;20204;-71
2022/09/08 03:57:23;;;;;;;1.53;1.10;;;;;;;17.82;100.00;97493.94;5073825;28;20559;-71
2022/09/08 03:59:51;;;;;;;2.17;1.00;;;;;;;17.83;100.00;97485.56;5073790;28;20228;-71
2022/09/08 04:02:18;;;;;;;2.73;1.30;;;;;;;17.79;100.00;97481.03;5073852;28;20205;-71
2022/09/08 04:04:49;;;;;;;2.07;1.10;;;;;;;17.77;100.00;97484.00;5073521;28;20209;-71
2022/09/08 04:07:17;;;;;;;0.90;0.90;;;;;;;17.72;100.00;97481.34;5074488;28;20192;-71
2022/09/08 04:09:43;;;;;;;1.53;1.00;;;;;;;17.69;100.00;97489.94;5073525;28;20228;-71
2022/09/08 04:12:11;;;;;;;2.97;1.20;;;;;;;17.68;100.00;97479.47;5073608;28;20209;-71
2022/09/08 04:14:38;;;;;;;2.50;1.20;;;;;;;17.66;100.00;97485.16;5073886;28;20210;-71
2022/09/08 04:17:04;;;;;;;1.83;1.10;;;;;;;17.61;100.00;97485.19;5073202;28;20675;-71
2022/09/08 04:19:31;;;;;;;1.63;1.30;;;;;;;17.57;100.00;97486.81;5073619;28;20232;-71
2022/09/08 04:21:57;;;;;;;1.60;1.20;;;;;;;17.59;100.00;97491.88;5073317;28;20717;-71
2022/09/08 04:24:24;;;;;;;1.27;1.00;;;;;;;17.53;100.00;97496.50;5073079;28;20667;-71
2022/09/08 04:26:50;;;;;;;2.23;1.13;;;;;;;17.48;100.00;97493.03;5073535;28;20295;-71
2022/09/08 04:29:17;;;;;;;2.13;1.27;;;;;;;17.46;100.00;97493.31;5073202;28;20235;-71
2022/09/08 04:31:44;;;;;;;3.57;1.40;;;;;;;17.48;100.00;97498.41;5073380;28;20201;-71
2022/09/08 04:34:13;;;;;;;1.10;1.00;;;;;;;17.37;100.00;97486.88;5073448;28;20683;-71
2022/09/08 04:36:40;;;;;;;1.63;1.27;;;;;;;17.47;100.00;97486.06;5073150;28;20595;-71
2022/09/08 04:39:07;;;;;;;2.43;1.17;;;;;;;17.44;100.00;97490.09;5073096;28;20208;-71
2022/09/08 04:41:33;;;;;;;1.67;1.20;;;;;;;17.43;100.00;97491.19;5072536;28;20717;-71
2022/09/08 04:44:03;;;;;;;1.53;1.13;;;;;;;17.45;100.00;97493.56;5072755;28;20210;-71
2022/09/08 04:46:31;;;;;;;2.37;1.00;;;;;;;17.41;100.00;97501.38;5073229;28;20209;-71
2022/09/08 04:48:58;;;;;;;1.33;1.10;;;;;;;17.45;100.00;97504.31;5072906;28;20205;-71
2022/09/08 04:51:26;;;;;;;1.03;1.00;;;;;;;17.37;100.00;97502.19;5073044;28;20201;-71
2022/09/08 04:53:53;;;;;;;2.27;1.03;;;;;;;17.41;100.00;97504.06;5073178;28;20211;-71
2022/09/08 04:56:21;;;;;;;1.40;1.30;;;;;;;17.45;100.00;97501.63;5072771;28;20212;-71
2022/09/08 04:58:47;;;;;;;2.93;1.37;;;;;;;17.32;100.00;97511.06;5072530;28;20212;-71
2022/09/08 05:01:18;;;;;;;1.73;1.03;;;;;;;17.37;100.00;97507.56;5072345;28;20714;-71
2022/09/08 05:03:44;;;;;;;3.17;1.10;;;;;;;17.31;100.00;97509.47;5072454;28;20188;-71
2022/09/08 05:06:13;;;;;;;1.10;0.90;;;;;;;17.33;100.00;97509.19;5072941;28;20310;-71
2022/09/08 05:08:43;;;;;;;3.47;1.27;;;;;;;17.23;100.00;97507.34;5072726;28;20215;-71
2022/09/08 05:11:10;;;;;;;2.47;1.40;;;;;;;17.23;100.00;97512.72;5072987;28;20231;-71
2022/09/08 05:13:36;;;;;;;3.07;1.30;;;;;;;17.26;100.00;97519.41;5072844;28;20204;-71
2022/09/08 05:16:24;;;;;;;1.60;1.23;;;;;;;17.16;100.00;97522.97;5072792;28;20204;-71
2022/09/08 05:18:56;;;;;;;1.87;1.30;;;;;;;17.14;100.00;97530.47;5072653;28;20581;-71
2022/09/08 05:21:22;;;;;;;2.03;1.30;;;;;;;17.24;100.00;97535.03;5075794;28;20215;-71
2022/09/08 05:23:50;;;;;;;1.27;1.03;;;;;;;17.22;100.00;97537.16;5076776;28;20201;-71
2022/09/08 05:26:18;;;;;;;2.80;1.30;;;;;;;17.24;100.00;97546.56;5076845;28;20208;-71
2022/09/08 05:28:45;;;;;;;1.77;1.33;;;;;;;17.27;100.00;97551.38;5076699;28;20205;-71
2022/09/08 05:31:21;;;;;;;2.23;1.20;;;;;;;17.30;100.00;97556.22;5076596;28;20225;-71
2022/09/08 05:33:48;;;;;;;2.13;1.20;;;;;;;17.20;100.00;97553.53;5076603;28;20195;-71
2022/09/08 05:36:20;;;;;;;1.53;1.10;;;;;;;17.21;100.00;97557.03;5076751;28;20205;-71
2022/09/08 05:38:47;;;;;;;1.00;1.00;;;;;;;17.21;100.00;97551.69;5076688;28;20212;-71
2022/09/08 05:41:15;;;;;;;2.27;1.60;;;;;;;17.15;100.00;97558.94;5076441;28;20233;-71
2022/09/08 05:43:42;;;;;;;1.70;1.30;;;;;;;17.24;100.00;97561.88;5076480;28;20200;-71
2022/09/08 05:46:10;;;;;;;1.20;1.00;;;;;;;17.19;100.00;97570.75;5076662;28;20215;-71
2022/09/08 05:48:36;;;;;;;2.53;0.90;;;;;;;17.17;100.00;97572.09;5076283;28;20274;-71
2022/09/08 05:51:08;;;;;;;2.03;1.10;;;;;;;17.22;100.00;97578.28;5076577;28;20224;-71
2022/09/08 05:53:34;;;;;;;2.57;1.23;;;;;;;17.24;100.00;97583.38;5075643;28;20196;-71
2022/09/08 05:56:03;;;;;;;1.60;1.20;;;;;;;17.30;100.00;97583.09;5075506;28;20205;-71
2022/09/08 05:58:30;;;;;;;1.33;1.23;;;;;;;17.24;100.00;97578.00;5076140;28;20204;-71
2022/09/08 06:01:03;;;;;;;3.13;1.30;;;;;;;17.20;100.00;97593.84;5075951;28;20235;-72
2022/09/08 06:03:29;;;;;;;2.33;1.20;;;;;;;17.19;100.00;97596.81;5076969;28;20543;-71
2022/09/08 06:05:57;;;;;;;1.37;1.10;;;;;;;17.21;100.00;97592.78;5075798;28;20287;-73
2022/09/08 06:08:24;;;;;;;1.90;1.17;;;;;;;17.23;100.00;97604.06;5076054;28;20211;-72
2022/09/08 06:10:52;;;;;;;1.83;0.97;;;;;;;17.19;100.00;97602.97;5075998;28;20225;-73
2022/09/08 06:13:21;;;;;;;1.30;1.10;;;;;;;17.23;100.00;97612.13;5076019;28;20208;-72
2022/09/08 06:15:48;;;;;;;1.13;1.03;;;;;;;17.22;100.00;97613.19;5076153;28;20596;-70
2022/09/08 06:18:14;;;;;;;3.33;1.33;;;;;;;17.10;100.00;97609.97;5075548;28;20216;-70
2022/09/08 06:20:41;;;;;;;2.23;0.90;;;;;;;17.07;100.00;97612.41;5075596;28;20225;-70
2022/09/08 06:23:07;;;;;;;1.27;1.00;;;;;;;17.11;100.00;97606.25;5075580;28;20205;-71
2022/09/08 06:25:40;;;;;;;1.00;0.90;;;;;;;17.09;100.00;97608.38;5075702;28;20262;-72
2022/09/08 06:28:26;;;;;;;1.00;0.87;;;;;;;17.00;100.00;97610.00;5075508;28;20219;-71
2022/09/08 06:30:55;;;;;;;1.50;0.80;;;;;;;16.92;100.00;97605.16;5073959;28;20271;-71
2022/09/08 06:33:29;;;;;;;0.60;0.60;;;;;;;16.90;100.00;97601.13;5073665;28;20576;-72
2022/09/08 06:36:14;;;;;;;0.87;0.67;;;;;;;16.83;100.00;97612.16;5075554;28;20193;-71
2022/09/08 06:38:56;;;;;;;3.97;0.90;;;;;;;16.77;100.00;97605.19;5075262;28;20188;-72
2022/09/08 06:41:33;;;;;;;2.40;0.70;;;;;;;16.72;100.00;97607.88;5075383;28;20209;-73
2022/09/08 06:44:10;;;;;;;0.70;0.70;;;;;;;16.85;100.00;97607.34;5074813;28;20193;-72
2022/09/08 06:46:39;;;;;;;0.70;0.70;;;;;;;16.75;100.00;97610.03;5074974;28;20650;-72
2022/09/08 06:49:06;;;;;;;0.80;0.80;;;;;;;16.82;100.00;97617.81;5074926;28;20208;-72
2022/09/08 06:52:00;;;;;;;1.47;0.80;;;;;;;16.66;100.00;97624.25;5074977;28;20210;-72
2022/09/08 06:54:46;;;;;;;1.27;0.80;;;;;;;16.71;100.00;97614.31;5075251;28;20193;-72
2022/09/08 06:57:19;;;;;;;2.07;0.77;;;;;;;16.70;100.00;97609.22;5074980;28;20554;-72
2022/09/08 06:59:58;;;;;;;1.67;0.80;;;;;;;16.72;100.00;97607.88;5075709;28;20227;-72
2022/09/08 07:02:52;;;;;;;3.93;0.90;;;;;;;16.73;100.00;97622.09;5074902;28;20213;-72
2022/09/08 07:05:32;;;;;;;1.30;0.80;;;;;;;16.77;100.00;97625.84;5075085;28;20208;-72
2022/09/08 07:08:04;;;;;;;1.27;0.70;;;;;;;16.82;100.00;97623.19;5074917;28;20188;-72
2022/09/08 07:10:43;;;;;;;1.03;0.77;;;;;;;16.74;100.00;97632.56;5074737;28;20224;-72
2022/09/08 07:13:36;;;;;;;1.83;0.77;;;;;;;16.76;100.00;97624.25;5074868;28;20219;-72
2022/09/08 07:16:02;;;;;;;1.17;1.00;;;;;;;16.79;100.00;97624.50;5074488;28;20189;-71
2022/09/08 07:18:39;;;;;;;2.27;0.93;;;;;;;16.86;100.00;97626.91;5074886;28;20193;-72
2022/09/08 07:21:30;;;;;;;0.70;0.70;;;;;;;16.71;100.00;97640.34;5074567;28;20227;-71
2022/09/08 07:23:59;;;;;;;1.83;0.83;;;;;;;16.63;100.00;97635.50;5074760;28;20199;-72
2022/09/08 07:26:33;;;;;;;1.97;0.80;;;;;;;16.65;100.00;97639.53;5074187;28;20627;-71
2022/09/08 07:29:07;;;;;;;1.63;0.80;;;;;;;16.66;100.00;97635.78;5074316;28;20632;-71
2022/09/08 07:31:40;;;;;;;1.50;0.80;;;;;;;16.82;100.00;97636.59;5074874;28;20191;-71
2022/09/08 07:34:15;;;;;;;1.60;0.70;;;;;;;16.89;100.00;97635.25;5074573;28;20275;-71
2022/09/08 07:37:00;;;;;;;0.90;0.87;;;;;;;16.89;100.00;97639.81;5074481;28;20189;-71
2022/09/08 07:39:38;;;;;;;3.23;1.10;;;;;;;17.00;100.00;97631.47;5074151;28;20236;-71
2022/09/08 07:42:07;;;;;;;0.97;0.87;;;;;;;17.11;100.00;97638.47;5074281;28;20209;-71
2022/09/08 07:44:34;;;;;;;3.50;0.90;;;;;;;17.12;100.00;97645.44;5073965;28;20208;-71
2022/09/08 07:47:21;;;;;;;0.97;0.90;;;;;;;17.27;100.00;97641.91;5074719;28;20207;-71
2022/09/08 07:50:09;;;;;;;1.47;0.80;;;;;;;17.24;100.00;97645.94;5074190;28;20414;-71
2022/09/08 07:52:54;;;;;;;0.73;0.70;;;;;;;17.34;98.29;97659.41;5073913;28;20196;-70
2022/09/08 07:55:23;;;;;;;0.80;0.80;;;;;;;17.65;99.75;97655.56;5074062;28;20192;-71
2022/09/08 07:57:57;;;;;;;3.23;0.70;;;;;;;17.89;95.39;97651.22;5073982;28;20205;-70
2022/09/08 08:00:43;;;;;;;2.20;0.80;;;;;;;17.85;95.91;97660.91;5073881;28;20252;-71
2022/09/08 08:03:28;;;;;;;2.97;0.90;;;;;;;17.81;93.89;97659.03;5073932;28;20193;-71
2022/09/08 08:06:02;;;;;;;0.77;0.60;;;;;;;17.91;93.45;97665.16;5073829;28;20189;-71
2022/09/08 08:08:44;;;;;;;1.40;0.90;;;;;;;18.01;92.54;97662.44;5073804;28;20192;-71
2022/09/08 08:11:24;;;;;;;0.70;0.70;;;;;;;17.98;93.71;97671.06;5073788;28;20227;-72
2022/09/08 08:14:06;;;;;;;1.83;0.77;;;;;;;17.96;93.65;97675.13;5073846;28;20188;-72
2022/09/08 08:16:57;;;;;;;2.70;0.90;;;;;;;17.87;89.52;97666.78;5073322;28;20685;-71
2022/09/08 08:19:30;;;;;;;1.13;0.80;;;;;;;17.88;95.17;97673.81;5073670;28;20254;-72
2022/09/08 08:22:11;;;;;;;0.70;0.67;;;;;;;17.92;89.23;97676.75;5073685;28;20303;-71
2022/09/08 08:25:25;;;;;;;0.60;0.60;;;;;;;17.89;88.91;97675.41;5073864;28;20596;-72
2022/09/08 08:28:17;;;;;;;0.80;0.80;;;;;;;18.01;88.35;97680.47;5070517;28;20204;-71
2022/09/08 08:31:22;;;;;;;0.67;0.63;;;;;;;18.10;86.20;97678.84;5073575;28;20225;-72
2022/09/08 08:33:56;;;;;;;1.60;0.93;;;;;;;18.37;84.75;97682.75;5073526;28;20211;-71
2022/09/08 08:36:25;;;;;;;2.57;0.70;;;;;;;18.18;82.21;97683.66;5073243;28;20663;-71
2022/09/08 08:39:22;;;;;;;0.83;0.70;;;;;;;18.30;86.07;97684.09;5073059;28;20548;-71
2022/09/08 08:42:00;;;;;;;1.03;0.70;;;;;;;18.35;84.21;97686.81;5063406;28;20232;-71
2022/09/08 08:44:38;;;;;;;1.03;0.70;;;;;;;18.42;82.77;97687.31;5071852;28;20663;-71
2022/09/08 08:47:29;;;;;;;0.97;0.60;;;;;;;18.63;84.85;97695.00;5073406;28;20561;-71
2022/09/08 08:50:20;;;;;;;0.67;0.60;;;;;;;18.97;84.22;97692.34;5073485;28;20225;-71
2022/09/08 08:52:46;;;;;;;2.53;0.90;;;;;;;18.96;79.77;97696.91;5073996;28;20189;-71
2022/09/08 08:55:12;;;;;;;0.87;0.70;;;;;;;19.08;80.19;97700.06;5072405;28;20200;-68
2022/09/08 08:57:57;;;;;;;0.97;0.87;;;;;;;19.08;76.01;97697.38;5073243;28;20208;-69
2022/09/08 09:00:37;;;;;;;2.20;0.80;;;;;;;19.29;77.66;97704.25;5073053;28;20222;-69
2022/09/08 09:03:50;;;;;;;0.43;0.43;;;;;;;19.35;75.89;97707.69;5072017;28;20211;-68
2022/09/08 09:06:52;;;;;;;3.63;0.90;;;;;;;19.43;75.44;97701.69;5051010;28;20202;-69
2022/09/08 09:09:39;;;;;;;1.13;0.80;;;;;;;19.66;73.85;97708.22;5072914;28;20311;-69
2022/09/08 09:12:21;;;;;;;2.30;0.97;;;;;;;19.70;72.73;97696.56;5073268;28;20227;-69
2022/09/08 09:14:56;;;;;;;0.77;0.60;;;;;;;19.80;73.27;97704.53;5073047;28;20188;-69
2022/09/08 09:18:11;;;;;;;1.10;0.90;;;;;;;19.54;73.51;97698.59;5073191;28;20215;-69
2022/09/08 09:21:06;;;;;;;9.47;1.70;;;;;;;19.53;71.41;97704.28;5064693;28;20232;-69
2022/09/08 09:23:54;;;;;;;5.00;1.23;;;;;;;19.60;73.14;97702.84;5072763;28;20200;-69
2022/09/08 09:26:23;;;;;;;2.33;1.20;;;;;;;19.42;70.82;97705.47;5073021;28;20197;-69
2022/09/08 09:29:04;;;;;;;1.80;0.70;;;;;;;19.32;71.15;97697.47;5072919;28;20204;-69
2022/09/08 09:32:09;;;;;;;1.90;0.90;;;;;;;19.44;73.12;97696.00;5072998;28;20193;-69
2022/09/08 09:34:41;;;;;;;1.03;0.80;;;;;;;19.78;70.77;97694.03;5068606;28;20207;-69
2022/09/08 09:37:51;;;;;;;1.20;0.67;;;;;;;19.59;71.04;97698.56;5072713;28;20673;-69
2022/09/08 09:40:33;;;;;;;0.80;0.80;;;;;;;19.60;73.22;97708.25;5057009;28;20231;-69
2022/09/08 09:43:23;;;;;;;0.80;0.80;;;;;;;19.80;77.05;97701.84;5072862;28;20223;-70
2022/09/08 09:46:02;;;;;;;2.63;0.73;;;;;;;19.89;71.97;97705.53;5057853;28;20193;-70
2022/09/08 09:49:08;;;;;;;1.00;0.90;;;;;;;19.72;72.21;97702.50;5072754;28;20193;-69
2022/09/08 09:51:53;;;;;;;1.63;0.80;;;;;;;19.54;77.65;97697.81;5061207;28;20212;-70
2022/09/08 09:54:34;;;;;;;1.07;0.67;;;;;;;19.52;74.70;97703.50;5072308;28;20193;-69
2022/09/08 09:57:16;;;;;;;3.70;0.80;;;;;;;19.29;73.77;97701.56;5071756;28;20197;-69
2022/09/08 10:00:20;;;;;;;2.93;1.10;;;;;;;19.38;74.71;97707.13;5072563;28;20244;-69
2022/09/08 10:03:17;;;;;;;1.60;0.90;;;;;;;19.76;77.07;97691.94;5071518;28;20231;-70
2022/09/08 10:06:14;;;;;;;1.90;0.80;;;;;;;20.03;73.50;97690.25;5072617;28;20211;-69
2022/09/08 10:08:47;;;;;;;1.83;1.07;;;;;;;20.19;72.07;97690.91;5076221;28;20192;-69
2022/09/08 10:11:32;;;;;;;2.47;0.80;;;;;;;20.25;69.46;97689.78;5075862;28;20224;-69
2022/09/08 10:14:15;;;;;;;3.07;0.93;;;;;;;20.31;69.34;97688.59;5075620;28;20663;-69
2022/09/08 10:17:01;;;;;;;1.50;0.70;;;;;;;20.22;68.28;97680.34;5075963;28;20246;-70
2022/09/08 10:19:33;;;;;;;1.53;0.80;;;;;;;20.37;68.31;97684.75;5076023;28;20228;-69
2022/09/08 10:22:28;;;;;;;1.30;0.70;;;;;;;20.19;67.49;97689.03;5076173;28;20215;-69
2022/09/08 10:25:07;;;;;;;1.63;1.53;;;;;;;20.14;70.64;97681.00;5075971;28;20196;-69
2022/09/08 10:27:52;;;;;;;18.27;16.37;;;;;;;20.15;69.47;97689.88;5074572;28;20189;-70
2022/09/08 10:30:26;;;;;;;1.17;1.10;;;;;;;19.98;68.43;97689.53;5075411;28;20315;-70
2022/09/08 10:33:17;;;;;;;1.50;1.40;;;;;;;20.02;67.54;97696.75;5075157;28;20234;-69
2022/09/08 10:35:46;;;;;;;1.93;0.90;;;;;;;20.07;66.39;97693.19;5075576;28;20189;-69
2022/09/08 10:38:35;;;;;;;3.60;0.80;;;;;;;20.25;64.95;97687.06;5075470;28;20200;-69
2022/09/08 10:41:38;;;;;;;1.43;1.07;;;;;;;19.98;64.11;97694.94;5075212;28;20769;-70
2022/09/08 10:44:15;;;;;;;1.50;1.37;;;;;;;20.17;64.14;97687.72;5075848;28;20275;-70
2022/09/08 10:47:11;;;;;;;1.90;1.10;;;;;;;19.97;63.82;97688.72;5075471;28;20195;-69
2022/09/08 10:50:09;;;;;;;1.73;1.00;;;;;;;19.87;64.95;97688.03;5065254;28;20228;-69
2022/09/08 10:53:14;;;;;;;2.10;1.13;;;;;;;20.13;64.06;97682.09;5075262;28;20189;-69
2022/09/08 10:56:02;;;;;;;2.40;1.70;;;;;;;19.96;63.72;97681.72;5074032;28;20193;-70
2022/09/08 10:58:41;;;;;;;2.83;2.20;;;;;;;19.94;66.78;97689.28;5075739;28;20216;-70
2022/09/08 11:01:41;;;;;;;4.40;0.90;;;;;;;19.89;66.01;97692.03;5074920;28;20283;-71
2022/09/08 11:04:32;;;;;;;2.67;1.57;;;;;;;19.78;64.82;97701.34;5074458;28;20624;-70
2022/09/08 11:07:33;;;;;;;16.90;15.13;;;;;;;19.87;67.75;97707.72;5075052;28;20196;-69
2022/09/08 11:10:25;;;;;;;3.40;1.00;;;;;;;19.84;67.98;97710.19;5074881;28;20234;-70
2022/09/08 11:12:58;;;;;;;1.70;1.07;;;;;;;19.35;71.66;97707.69;5073618;28;20193;-69
2022/09/08 11:15:42;;;;;;;0.80;0.80;;;;;;;19.56;73.60;97706.41;5074495;28;20654;-69
2022/09/08 11:18:46;;;;;;;1.70;1.40;;;;;;;19.47;72.70;97705.44;5073724;28;20671;-69
2022/09/08 11:21:16;;;;;;;1.03;0.80;;;;;;;19.54;71.99;97706.69;5063233;28;20234;-69
2022/09/08 11:24:03;;;;;;;2.33;1.10;;;;;;;19.55;73.42;97712.91;5074167;28;20658;-69
2022/09/08 11:26:34;;;;;;;0.83;0.70;;;;;;;19.66;74.65;97708.22;5072986;28;20201;-69
2022/09/08 11:29:09;;;;;;;0.70;0.70;;;;;;;19.78;74.75;97707.53;5072753;28;20204;-69
2022/09/08 11:31:44;;;;;;;0.97;0.80;;;;;;;19.98;73.14;97711.13;5074285;28;20188;-70
2022/09/08 11:34:20;;;;;;;0.80;0.80;;;;;;;20.45;71.30;97708.41;5074488;28;20196;-70
2022/09/08 11:37:01;;;;;;;2.10;0.87;;;;;;;20.31;70.18;97707.50;5074486;28;20193;-70
2022/09/08 11:40:01;;;;;;;1.70;1.10;;;;;;;20.54;68.87;97704.78;5074331;28;20224;-70
2022/09/08 11:42:30;;;;;;;2.43;1.00;;;;;;;20.34;65.28;97709.63;5073928;28;20208;-70
2022/09/08 11:45:18;;;;;;;1.50;0.80;;;;;;;20.15;63.75;97708.78;5074342;28;20213;-70
2022/09/08 11:48:16;;;;;;;1.57;1.00;;;;;;;20.16;65.14;97708.47;5073980;28;20686;-70
2022/09/08 11:50:51;;;;;;;2.77;1.33;;;;;;;20.17;66.50;97704.69;5074130;28;20220;-70
2022/09/08 11:53:45;;;;;;;1.20;0.83;;;;;;;20.08;62.40;97711.00;5073917;28;20195;-70
2022/09/08 11:56:26;;;;;;;2.33;1.00;;;;;;;19.98;63.66;97705.72;5074146;28;20274;-70
2022/09/08 11:59:20;;;;;;;1.83;1.00;;;;;;;20.14;63.47;97710.69;5074039;28;20184;-70
2022/09/08 12:02:24;;;;;;;1.30;0.70;;;;;;;20.41;60.84;97710.06;5073698;28;20631;-70
2022/09/08 12:05:04;;;;;;;1.27;1.00;;;;;;;20.56;61.22;97707.97;5074688;28;20188;-70
2022/09/08 12:08:17;;;;;;;4.63;1.03;;;;;;;20.70;60.20;97702.66;5073737;28;20196;-70
2022/09/08 12:10:56;;;;;;;2.30;1.00;;;;;;;20.80;61.15;97707.91;5057154;28;20231;-70